Hilliard, OH (43026)

12:18 PM EDT on August 25, 2016 (GMT -0400)
Hayden Run Village | | Change Station
Active Advisory: Special Statement

Elev 925 ft 40.05 °N, 83.16 °W | Updated 6 minutes ago

Mostly Cloudy
Mostly Cloudy
89.1 °F
Feels Like 103 °F
N
4.2
Wind Variable Wind from SSE

Today
High -- | Low -- °F
--% Chance of Precip.
Yesterday
High -- | Low -- °F
Precip. -- in
Pressure 30.04 in
Visibility 10.0 miles
Clouds Few 1700 ft
Mostly Cloudy 2400 ft
Heat Index 103 °F
Dew Point 78 °F
Humidity 69%
Rainfall 1.12 in
Snow Depth Not available.
6:54 AM 8:14 PM
Last Quarter, 44% visible
METAR KOSU 251553Z 21008KT 10SM FEW017 BKN024 29/25 A3007 RMK AO2 SLP172 T02890250
Pressure 30.04 in
Visibility 10.0 miles
Clouds Few 1700 ft
Mostly Cloudy 2400 ft
Heat Index 103 °F
Dew Point 78 °F
Humidity 69%
Rainfall 1.12 in
Snow Depth Not available.
6:54 AM 8:14 PM
Last Quarter, 44% visible
METAR KOSU 251553Z 21008KT 10SM FEW017 BKN024 29/25 A3007 RMK AO2 SLP172 T02890250

10-Day Weather Forecast

Almanac

Astronomy

Aug. 25, 2016 Rise Set
Actual Time
Civil Twilight
Nautical Twilight
Astronomical Twilight
Moon
Length of Visible Light
Length of Day
Tomorrow will be .
, % of the Moon is Illuminated

Today's Extremes

State Highs State Lows

Community

WunderPhotos

Upload Photos

1,934,867 photos uploaded!

WunderBlog® & News

Nearby

Air Quality

  Air Quality AQ Index Pollutant
Not available.

Snow Depth

Station Depth Elevation

Earthquake Activity

City Distance Mag. Time & Date
Minimum magnitude displayed is 2.5.

Coastal Water Temperatures

Place Temperature

Stations

Nearby Weather Stations

Station Location Temp. Windchill Dew Point Humidity Wind Precip. Elev Updated Type
                   

Watches & Warnings

Special Statement
Issued: 9:40 AM EDT Aug. 25, 2016 – National Weather Service

... Hot and humid conditions expected this afternoon...

Temperatures in the upper 80s to the lower 90s will combine with
high humidities to produce heat indices in the upper 90s to around
100 degrees this afternoon.

If possible... spend more time in an air conditioned or well
ventilated place this afternoon. If you will be outside... wear
light weight and loose fitting clothing. Remember to drink plenty
of water.